Rennerdale, Pennsylvania
Current Conditions -  °F | °C
As of 4:51 AM on Sunday 21 Dec 2014 (Local Time) from KPIT Reporting Station
Overcast Overcast  
Wind Chill: 27°   Ceiling: 5000
Heat Index: 27°   Visibility: 10mi
Dew Point: 22°   Wind: 3mph
Humidity: 81%   Direction: 270°W
Pressure: 30.27"   Gusts: NA
Location:  40.4095°N, 80.1154°W
Report Text: KPIT 210951Z 27003KT 10SM FEW029 BKN050 OVC060 M03/M06 A3027 RMK AO2 SLP273 T10281056
Loading
Personal Weather Stations






























Interactive Weather Map New forecast layout! Learn more

10-Day Weather Forecast

Advertisements
Track Severe Weather on mobile